Time;durP1;ratioP1;P1;durP2;ratioP2;P2;SDS_P1;SDS_P2;PMS_P1;PMS_P2;Temp;Humidity;BMP_temperature;BMP_pressure;BME280_temperature;BME280_humidity;BME280_pressure;Samples;Min_cycle;Max_cycle;Signal;HPM_P1;HPM_P2
2022/05/11 00:01:58;;;;;;;9.75;8.95;;;16.70;99.90;;;;;;5069972;28;20533;-53
2022/05/11 00:04:27;;;;;;;10.13;9.13;;;16.70;99.90;;;;;;5070608;28;20225;-52
2022/05/11 00:06:55;;;;;;;11.00;10.00;;;16.70;99.90;;;;;;5068911;28;20201;-52
2022/05/11 00:09:23;;;;;;;9.77;8.88;;;16.70;99.90;;;;;;5071268;28;20224;-53
2022/05/11 00:11:51;;;;;;;10.45;9.52;;;16.60;99.90;;;;;;5071015;28;20248;-52
2022/05/11 00:14:19;;;;;;;11.85;9.40;;;16.60;99.90;;;;;;5070491;28;20709;-52
2022/05/11 00:16:47;;;;;;;10.50;9.50;;;16.60;99.90;;;;;;5071091;28;20201;-53
2022/05/11 00:19:19;;;;;;;10.48;9.52;;;16.50;99.90;;;;;;5070732;28;20311;-52
2022/05/11 00:21:47;;;;;;;10.05;9.15;;;16.50;99.90;;;;;;5070563;28;20616;-53
2022/05/11 00:24:15;;;;;;;10.18;9.27;;;16.40;99.90;;;;;;5070868;28;20220;-52
2022/05/11 00:26:43;;;;;;;10.65;9.73;;;16.40;99.90;;;;;;5070356;28;20221;-52
2022/05/11 00:29:11;;;;;;;10.85;9.85;;;16.50;99.90;;;;;;5070323;28;20260;-52
2022/05/11 00:31:40;;;;;;;9.85;8.85;;;16.50;99.90;;;;;;5069702;28;20205;-52
2022/05/11 00:34:08;;;;;;;10.88;9.60;;;16.50;99.90;;;;;;5070597;28;20208;-53
2022/05/11 00:36:37;;;;;;;9.60;8.80;;;16.50;99.90;;;;;;5070300;28;20263;-52
2022/05/11 00:39:05;;;;;;;9.88;8.98;;;16.50;99.90;;;;;;5070384;28;20225;-52
2022/05/11 00:41:33;;;;;;;10.05;9.13;;;16.50;99.90;;;;;;5071060;28;20238;-53
2022/05/11 00:44:04;;;;;;;9.45;8.55;;;16.50;99.90;;;;;;5070324;28;20271;-53
2022/05/11 00:46:37;;;;;;;10.05;9.20;;;16.50;99.90;;;;;;5070429;28;20200;-53
2022/05/11 00:52:00;;;;;;;10.43;9.40;;;16.40;99.90;;;;;;5061930;28;20236;-52
2022/05/11 00:54:32;;;;;;;10.48;9.57;;;16.40;99.90;;;;;;5050481;28;20245;-52
2022/05/11 00:57:03;;;;;;;9.82;8.77;;;16.40;99.90;;;;;;5050626;28;20914;-53
2022/05/11 00:59:35;;;;;;;9.80;8.85;;;16.40;99.90;;;;;;5050943;28;20221;-53
2022/05/11 01:02:06;;;;;;;9.18;8.30;;;16.40;99.90;;;;;;5050049;28;20194;-53
2022/05/11 01:04:38;;;;;;;12.10;8.68;;;16.50;99.90;;;;;;5050674;28;20244;-52
2022/05/11 01:07:10;;;;;;;9.60;8.70;;;16.50;99.90;;;;;;5049897;28;20229;-52
2022/05/11 01:09:39;;;;;;;11.70;8.70;;;16.40;99.90;;;;;;5061083;28;20200;-53
2022/05/11 01:12:11;;;;;;;10.13;9.15;;;16.40;99.90;;;;;;5069861;28;20256;-53
2022/05/11 01:14:42;;;;;;;9.82;8.93;;;16.40;99.90;;;;;;5070772;28;20229;-53
2022/05/11 01:17:11;;;;;;;10.60;9.70;;;16.40;99.90;;;;;;5070143;28;20244;-53
2022/05/11 01:19:44;;;;;;;9.57;8.68;;;16.40;99.90;;;;;;5070248;28;20258;-53
2022/05/11 01:22:18;;;;;;;9.57;8.70;;;16.40;99.90;;;;;;5070304;28;20208;-53
2022/05/11 01:24:50;;;;;;;10.27;9.32;;;16.40;99.90;;;;;;5069873;28;20217;-53
2022/05/11 01:27:26;;;;;;;10.18;9.18;;;16.40;99.90;;;;;;5070693;28;20185;-53
2022/05/11 01:29:55;;;;;;;9.57;8.68;;;16.40;99.90;;;;;;5070158;28;20723;-54
2022/05/11 01:32:25;;;;;;;10.85;9.18;;;16.40;99.90;;;;;;5069911;28;20244;-53
2022/05/11 01:34:59;;;;;;;9.77;8.88;;;16.30;99.90;;;;;;5069769;28;20240;-53
2022/05/11 01:37:27;;;;;;;9.45;8.63;;;16.40;99.90;;;;;;5069953;28;20258;-52
2022/05/11 01:39:57;;;;;;;9.23;8.23;;;16.30;99.90;;;;;;5055952;28;20260;-53
2022/05/11 01:42:25;;;;;;;9.02;8.23;;;16.30;99.90;;;;;;5049819;28;20748;-53
2022/05/11 01:44:53;;;;;;;9.90;8.98;;;16.30;99.90;;;;;;5050955;28;20587;-53
2022/05/11 01:47:21;;;;;;;9.85;8.70;;;16.30;99.90;;;;;;5053526;28;20244;-53
2022/05/11 01:49:49;;;;;;;9.85;9.05;;;16.30;99.90;;;;;;5062017;28;20613;-53
2022/05/11 01:52:17;;;;;;;8.88;8.05;;;16.30;99.90;;;;;;5062150;28;20233;-53
2022/05/11 01:54:46;;;;;;;9.82;8.85;;;16.30;99.90;;;;;;5053275;28;20735;-52
2022/05/11 01:57:15;;;;;;;10.07;9.07;;;16.30;99.90;;;;;;5053321;28;20209;-52
2022/05/11 01:59:43;;;;;;;10.38;9.15;;;16.30;99.90;;;;;;5053955;28;20229;-53
2022/05/11 02:02:11;;;;;;;9.02;8.23;;;16.20;99.90;;;;;;5052983;28;20398;-53
2022/05/11 02:10:10;;;;;;;10.02;8.80;;;16.10;99.90;;;;;;5068304;28;20236;-53
2022/05/11 02:12:40;;;;;;;9.93;8.70;;;16.10;99.90;;;;;;5072656;28;20590;-53
2022/05/11 02:15:08;;;;;;;9.60;8.70;;;16.10;99.90;;;;;;5073397;28;20205;-52
2022/05/11 02:17:37;;;;;;;10.70;9.70;;;16.00;99.90;;;;;;5073257;28;20573;-52
2022/05/11 02:20:06;;;;;;;10.68;9.68;;;16.00;99.90;;;;;;5073187;28;20205;-52
2022/05/11 02:22:34;;;;;;;10.27;9.32;;;15.90;99.90;;;;;;5065894;28;20236;-53
2022/05/11 02:25:03;;;;;;;10.60;9.60;;;15.80;99.90;;;;;;5084597;28;20241;-53
2022/05/11 02:27:32;;;;;;;10.70;9.60;;;15.80;99.90;;;;;;5089914;28;20228;-53
2022/05/11 02:30:03;;;;;;;10.10;8.98;;;15.80;99.90;;;;;;5053087;28;20809;-53
2022/05/11 02:32:31;;;;;;;11.05;9.88;;;15.70;99.90;;;;;;5052529;28;20194;-53
2022/05/11 02:35:14;;;;;;;9.52;8.57;;;15.70;99.90;;;;;;5052644;28;20206;-53
2022/05/11 02:37:43;;;;;;;10.70;9.60;;;15.70;99.90;;;;;;5052613;28;20230;-53
2022/05/11 02:40:13;;;;;;;11.05;9.65;;;15.60;99.90;;;;;;5052698;28;20210;-52
2022/05/11 02:42:42;;;;;;;11.20;10.10;;;15.50;99.90;;;;;;5052465;28;20194;-53
2022/05/11 02:45:13;;;;;;;10.93;9.93;;;15.50;99.90;;;;;;5052524;28;20721;-52
2022/05/11 02:47:41;;;;;;;10.70;9.70;;;15.50;99.90;;;;;;5052191;28;20264;-53
2022/05/11 02:50:11;;;;;;;10.95;9.95;;;15.40;99.90;;;;;;5063451;28;20232;-52
2022/05/11 02:52:39;;;;;;;11.50;9.70;;;15.40;99.90;;;;;;5071835;28;20232;-52
2022/05/11 02:55:08;;;;;;;10.88;9.88;;;15.40;99.90;;;;;;5072516;28;20201;-53
2022/05/11 02:57:37;;;;;;;10.60;9.73;;;15.30;99.90;;;;;;5071732;28;20235;-53
2022/05/11 03:00:09;;;;;;;10.77;9.67;;;15.30;99.90;;;;;;5072414;28;20228;-53
2022/05/11 03:02:39;;;;;;;12.37;10.97;;;15.20;99.90;;;;;;5072094;28;20620;-52
2022/05/11 03:05:08;;;;;;;11.97;10.73;;;15.10;99.90;;;;;;5070641;28;20605;-53
2022/05/11 03:07:37;;;;;;;11.27;10.27;;;15.10;99.90;;;;;;5072029;28;20307;-53
2022/05/11 03:10:07;;;;;;;11.43;10.32;;;15.10;99.90;;;;;;5072355;28;20205;-53
2022/05/11 03:12:35;;;;;;;11.50;10.40;;;15.10;99.90;;;;;;5071629;28;20208;-52
2022/05/11 03:15:05;;;;;;;11.07;9.98;;;15.00;99.90;;;;;;5071938;28;20229;-53
2022/05/11 03:17:35;;;;;;;12.85;10.75;;;14.90;99.90;;;;;;5071866;28;20225;-53
2022/05/11 03:20:05;;;;;;;11.05;10.05;;;14.90;99.90;;;;;;5071785;28;20231;-52
2022/05/11 03:22:33;;;;;;;12.23;11.13;;;14.90;99.90;;;;;;5071549;28;20189;-52
2022/05/11 03:25:02;;;;;;;10.87;9.60;;;14.80;99.90;;;;;;5071713;28;20282;-52
2022/05/11 03:27:31;;;;;;;12.93;9.67;;;14.80;99.90;;;;;;5071836;28;20221;-53
2022/05/11 03:29:59;;;;;;;11.13;10.13;;;14.80;99.90;;;;;;5052386;28;20267;-52
2022/05/11 03:35:14;;;;;;;10.47;9.57;;;14.80;99.90;;;;;;5051650;28;20229;-52
2022/05/11 03:37:42;;;;;;;11.30;10.27;;;14.80;99.90;;;;;;5051624;28;20240;-52
2022/05/11 03:40:12;;;;;;;11.70;10.60;;;14.80;99.90;;;;;;5051507;28;20235;-53
2022/05/11 03:42:41;;;;;;;10.77;9.67;;;14.70;99.90;;;;;;5051227;28;20267;-52
2022/05/11 03:45:12;;;;;;;10.87;9.97;;;14.70;99.90;;;;;;5051208;28;20230;-52
2022/05/11 03:47:41;;;;;;;11.80;10.70;;;14.70;99.90;;;;;;5051214;28;20225;-53
2022/05/11 03:50:10;;;;;;;11.10;10.00;;;14.70;99.90;;;;;;5062828;28;20243;-53
2022/05/11 03:52:40;;;;;;;10.83;9.83;;;14.60;99.90;;;;;;5070988;28;20244;-53
2022/05/11 03:55:10;;;;;;;11.90;10.70;;;14.60;99.90;;;;;;5070788;28;20685;-52
2022/05/11 03:57:40;;;;;;;10.93;9.87;;;14.50;99.90;;;;;;5071193;28;20742;-52
2022/05/11 04:00:12;;;;;;;11.30;10.20;;;14.50;99.90;;;;;;5071425;28;20208;-52
2022/05/11 04:02:41;;;;;;;12.07;10.80;;;14.50;99.90;;;;;;5070663;28;20216;-52
2022/05/11 04:05:13;;;;;;;11.30;10.20;;;14.40;99.90;;;;;;5057941;28;20701;-52
2022/05/11 04:07:43;;;;;;;12.80;11.57;;;14.40;99.90;;;;;;5050728;28;20272;-53
2022/05/11 04:10:13;;;;;;;12.13;10.37;;;14.40;99.90;;;;;;5065770;28;20236;-52
2022/05/11 04:12:41;;;;;;;11.97;10.73;;;14.40;99.90;;;;;;5070846;28;20234;-52
2022/05/11 04:15:11;;;;;;;11.17;10.10;;;14.40;99.90;;;;;;5070846;28;20197;-53
2022/05/11 04:17:39;;;;;;;11.43;10.33;;;14.40;99.90;;;;;;5070582;28;20225;-53
2022/05/11 04:20:10;;;;;;;11.70;10.53;;;14.40;99.90;;;;;;5071129;28;20256;-52
2022/05/11 04:22:38;;;;;;;11.93;10.83;;;14.40;99.90;;;;;;5070479;28;20212;-52
2022/05/11 04:25:09;;;;;;;12.13;10.77;;;14.40;99.90;;;;;;5070797;28;20316;-52
2022/05/11 04:27:38;;;;;;;12.20;11.10;;;14.40;99.90;;;;;;5070486;28;20244;-52
2022/05/11 04:30:08;;;;;;;12.27;11.07;;;14.40;99.90;;;;;;5070729;28;20247;-52
2022/05/11 04:32:36;;;;;;;12.83;11.33;;;14.50;99.90;;;;;;5070324;28;20666;-53
2022/05/11 04:35:04;;;;;;;15.13;11.83;;;14.60;99.90;;;;;;5070725;28;20334;-53
2022/05/11 04:37:33;;;;;;;12.13;10.83;;;15.10;99.90;;;;;;5070602;28;20320;-53
2022/05/11 04:40:01;;;;;;;12.05;10.88;;;15.70;99.90;;;;;;5070474;28;20251;-52
2022/05/11 04:42:31;;;;;;;11.80;10.60;;;16.10;99.90;;;;;;5070364;28;20270;-52
2022/05/11 04:44:59;;;;;;;12.10;10.90;;;16.30;99.90;;;;;;5070619;28;20331;-52
2022/05/11 04:47:27;;;;;;;10.68;9.75;;;16.70;99.90;;;;;;5070514;28;20251;-53
2022/05/11 04:49:56;;;;;;;11.40;10.20;;;17.40;99.90;;;;;;5070195;28;20201;-53
2022/05/11 04:52:24;;;;;;;12.80;11.60;;;18.00;99.90;;;;;;5070327;28;20239;-53
2022/05/11 04:54:52;;;;;;;13.25;11.48;;;18.30;99.90;;;;;;5070742;28;20237;-53
2022/05/11 04:57:21;;;;;;;13.35;10.57;;;18.00;99.90;;;;;;5070923;28;20209;-53
2022/05/11 04:59:51;;;;;;;10.65;9.48;;;18.00;99.90;;;;;;5070168;28;20209;-53
2022/05/11 05:02:20;;;;;;;10.73;9.25;;;18.50;99.90;;;;;;5070315;28;20236;-53
2022/05/11 05:04:50;;;;;;;10.40;9.40;;;19.20;99.90;;;;;;5069543;28;20250;-53
2022/05/11 05:07:19;;;;;;;10.88;9.88;;;19.70;99.90;;;;;;5070509;28;20282;-53
2022/05/11 05:09:47;;;;;;;10.77;9.32;;;20.30;99.90;;;;;;5070504;28;20201;-53
2022/05/11 05:12:15;;;;;;;14.75;9.07;;;20.70;99.90;;;;;;5070419;28;20232;-53
2022/05/11 05:14:44;;;;;;;10.10;9.18;;;21.00;99.90;;;;;;5065835;28;20245;-53
2022/05/11 05:17:18;;;;;;;10.15;9.25;;;21.40;99.90;;;;;;5056076;28;20658;-53
2022/05/11 05:19:47;;;;;;;10.60;9.57;;;21.30;99.90;;;;;;5071359;28;20213;-53
2022/05/11 05:22:16;;;;;;;11.40;10.30;;;20.60;99.90;;;;;;5073284;28;20208;-52
2022/05/11 05:24:45;;;;;;;10.50;9.50;;;19.90;99.90;;;;;;5073797;28;20209;-52
2022/05/11 05:27:16;;;;;;;13.05;10.00;;;19.50;99.90;;;;;;5073486;28;20229;-50
2022/05/11 05:32:46;;;;;;;11.13;10.15;;;19.80;99.90;;;;;;5011000;28;20560;-50
2022/05/11 05:35:16;;;;;;;12.30;11.00;;;19.40;99.90;;;;;;5011395;28;20249;-50
2022/05/11 05:37:45;;;;;;;11.52;10.32;;;19.00;99.90;;;;;;5030546;28;20311;-51
2022/05/11 05:40:14;;;;;;;11.30;10.38;;;18.70;99.90;;;;;;5052909;28;20252;-51
2022/05/11 05:42:43;;;;;;;11.20;10.10;;;19.30;99.90;;;;;;5052980;28;20766;-52
2022/05/11 05:45:12;;;;;;;10.77;9.85;;;20.10;99.90;;;;;;5053822;28;20206;-51
2022/05/11 05:47:41;;;;;;;10.90;10.00;;;20.20;99.90;;;;;;5053214;28;20264;-51
2022/05/11 05:50:11;;;;;;;12.88;10.82;;;20.40;99.90;;;;;;5064328;28;20197;-51
2022/05/11 05:52:39;;;;;;;11.85;10.65;;;20.20;99.90;;;;;;5073193;28;20259;-50
2022/05/11 05:55:08;;;;;;;12.30;11.30;;;20.20;99.90;;;;;;5060524;28;20252;-51
2022/05/11 05:57:37;;;;;;;11.85;10.63;;;20.10;99.90;;;;;;5053705;28;20614;-51
2022/05/11 06:00:07;;;;;;;11.32;10.18;;;20.40;99.90;;;;;;5054023;28;20683;-51
2022/05/11 06:02:36;;;;;;;11.48;10.15;;;20.70;99.90;;;;;;5053639;28;20288;-51
2022/05/11 06:05:05;;;;;;;11.00;9.88;;;21.40;99.90;;;;;;5062651;28;20227;-51
2022/05/11 06:07:35;;;;;;;11.45;10.05;;;21.90;99.90;;;;;;5073621;28;20307;-50
2022/05/11 06:10:03;;;;;;;10.95;9.95;;;22.30;99.90;;;;;;5073746;28;20240;-50
2022/05/11 06:12:32;;;;;;;11.88;10.23;;;22.60;99.90;;;;;;5073452;28;20686;-51
2022/05/11 06:15:00;;;;;;;10.07;9.07;;;22.80;99.90;;;;;;5073583;28;20205;-51
2022/05/11 06:17:29;;;;;;;10.85;9.82;;;23.10;99.90;;;;;;5073959;28;20258;-51
2022/05/11 06:19:57;;;;;;;9.70;8.98;;;23.20;99.90;;;;;;5073763;28;20232;-51
2022/05/11 06:22:25;;;;;;;9.70;8.85;;;23.50;99.90;;;;;;5073443;28;20212;-51
2022/05/11 06:24:55;;;;;;;9.45;8.65;;;23.60;99.90;;;;;;5073607;28;20890;-50
2022/05/11 06:27:24;;;;;;;9.77;8.85;;;24.00;99.90;;;;;;5073631;28;20641;-50
2022/05/11 06:29:54;;;;;;;9.75;8.82;;;24.30;99.90;;;;;;5073257;28;20212;-49
2022/05/11 06:32:23;;;;;;;10.50;9.52;;;24.30;99.90;;;;;;5073104;28;20263;-51
2022/05/11 06:34:52;;;;;;;9.52;8.60;;;24.50;99.90;;;;;;5073246;28;20201;-50
2022/05/11 06:37:20;;;;;;;9.73;8.82;;;24.60;99.90;;;;;;5065591;28;20267;-51
2022/05/11 06:39:49;;;;;;;9.35;8.45;;;24.70;99.90;;;;;;5061754;28;20205;-50
2022/05/11 06:42:20;;;;;;;9.15;8.25;;;24.80;99.90;;;;;;5057989;28;20229;-51
2022/05/11 06:44:49;;;;;;;9.38;8.27;;;24.90;99.90;;;;;;5052958;28;20288;-52
2022/05/11 06:47:17;;;;;;;9.32;8.52;;;24.90;99.90;;;;;;5052425;28;20247;-51
2022/05/11 06:49:45;;;;;;;9.52;8.63;;;24.80;99.90;;;;;;5060440;28;20201;-51
2022/05/11 06:52:14;;;;;;;9.82;8.82;;;25.10;99.90;;;;;;5072099;28;20207;-51
2022/05/11 07:00:20;;;;;;;8.55;7.78;;;25.20;99.90;;;;;;5071995;28;20857;-51
2022/05/11 07:02:48;;;;;;;9.75;8.48;;;25.40;99.90;;;;;;5071531;28;20208;-51
2022/05/11 07:05:17;;;;;;;9.00;7.82;;;25.60;99.90;;;;;;5060188;28;20216;-52
2022/05/11 07:07:45;;;;;;;8.23;7.43;;;25.80;99.90;;;;;;5052561;28;20260;-51
2022/05/11 07:10:13;;;;;;;10.00;7.50;;;25.70;99.90;;;;;;5067410;28;20232;-51
2022/05/11 07:12:46;;;;;;;8.07;7.28;;;25.60;99.90;;;;;;5071677;28;20234;-50
2022/05/11 07:15:16;;;;;;;7.97;7.28;;;25.80;99.90;;;;;;5072588;28;20231;-51
2022/05/11 07:17:53;;;;;;;7.32;6.72;;;25.80;99.90;;;;;;5062551;28;20706;-51
2022/05/11 07:20:24;;;;;;;8.57;7.10;;;25.90;99.90;;;;;;5051688;28;20252;-50
2022/05/11 07:22:52;;;;;;;7.30;6.65;;;26.00;99.90;;;;;;5051869;28;20198;-50
2022/05/11 07:25:24;;;;;;;8.18;7.28;;;26.10;99.90;;;;;;5052761;28;20206;-50
2022/05/11 07:27:53;;;;;;;8.20;7.32;;;26.10;99.90;;;;;;5052051;28;20230;-51
2022/05/11 07:30:24;;;;;;;7.60;7.00;;;26.00;99.90;;;;;;5051820;28;20244;-51
2022/05/11 07:32:59;;;;;;;8.18;7.32;;;26.20;99.90;;;;;;5051769;28;20247;-50
2022/05/11 07:35:28;;;;;;;9.32;6.75;;;26.10;99.90;;;;;;5051891;28;20675;-51
2022/05/11 07:37:56;;;;;;;7.88;7.05;;;26.00;99.90;;;;;;5051663;28;20405;-51
2022/05/11 07:40:25;;;;;;;7.68;6.93;;;26.00;99.90;;;;;;5050715;28;20617;-52
2022/05/11 07:42:55;;;;;;;8.20;7.40;;;25.90;99.90;;;;;;5057956;28;20626;-51
2022/05/11 07:45:23;;;;;;;8.05;7.35;;;26.10;99.90;;;;;;5071076;28;20204;-51
2022/05/11 07:47:51;;;;;;;7.40;6.70;;;26.10;99.90;;;;;;5071456;28;20658;-51
2022/05/11 07:50:20;;;;;;;6.75;6.00;;;26.30;99.90;;;;;;5070397;28;20205;-50
2022/05/11 07:52:48;;;;;;;7.38;6.45;;;26.60;99.90;;;;;;5070763;28;20287;-51
2022/05/11 07:55:18;;;;;;;8.23;6.90;;;26.70;99.90;;;;;;5071002;28;20228;-51
2022/05/11 08:00:33;;;;;;;9.82;6.05;;;26.60;99.90;;;;;;5070383;28;20244;-51
2022/05/11 08:03:01;;;;;;;10.82;5.95;;;26.10;99.90;;;;;;5070580;28;20251;-51
2022/05/11 08:05:30;;;;;;;18.83;6.20;;;25.80;99.90;;;;;;5071085;28;20205;-51
2022/05/11 08:08:00;;;;;;;7.90;5.63;;;25.50;99.90;;;;;;5070813;28;20228;-51
2022/05/11 08:10:30;;;;;;;8.98;6.25;;;25.60;99.90;;;;;;5071077;28;20687;-51
2022/05/11 08:13:00;;;;;;;6.65;5.55;;;25.50;99.90;;;;;;5070690;28;20232;-51
2022/05/11 08:15:31;;;;;;;7.60;5.70;;;25.40;99.90;;;;;;5070183;28;20623;-51
2022/05/11 08:18:02;;;;;;;6.00;5.47;;;25.20;99.90;;;;;;5070766;28;20745;-51
2022/05/11 08:20:33;;;;;;;45.58;7.93;;;25.10;99.90;;;;;;5070505;28;21028;-51
2022/05/11 08:23:02;;;;;;;7.05;5.57;;;24.90;99.90;;;;;;5070614;28;20280;-51
2022/05/11 08:25:31;;;;;;;7.47;5.80;;;25.00;99.90;;;;;;5070908;28;20566;-51
2022/05/11 08:28:01;;;;;;;8.60;6.07;;;25.00;99.90;;;;;;5070733;28;20705;-51
2022/05/11 08:33:23;;;;;;;6.53;5.70;;;25.00;99.90;;;;;;5070580;28;20189;-51
2022/05/11 08:36:14;;;;;;;7.55;6.13;;;24.90;99.90;;;;;;5070690;28;20205;-51
2022/05/11 08:38:44;;;;;;;6.78;5.70;;;24.80;99.90;;;;;;5070416;28;20641;-51
2022/05/11 08:41:27;;;;;;;42.95;7.95;;;24.90;99.90;;;;;;5060292;28;20216;-51
2022/05/11 08:43:59;;;;;;;8.43;5.72;;;24.90;99.90;;;;;;5050103;28;20213;-51
2022/05/11 08:46:45;;;;;;;9.88;5.53;;;25.00;99.90;;;;;;5051070;28;20209;-51
2022/05/11 08:49:22;;;;;;;14.05;6.55;;;25.00;99.90;;;;;;5054199;28;20596;-51
2022/05/11 08:51:58;;;;;;;12.13;5.43;;;25.10;99.90;;;;;;5069300;28;20208;-51
2022/05/11 08:54:37;;;;;;;8.38;5.80;;;25.20;99.90;;;;;;5072884;28;20269;-51
2022/05/11 08:57:10;;;;;;;6.68;5.53;;;25.30;99.90;;;;;;5055150;28;20612;-52
2022/05/11 08:59:39;;;;;;;6.68;6.03;;;25.20;99.90;;;;;;5054764;28;20209;-52
2022/05/11 09:02:19;;;;;;;6.20;5.30;;;25.10;99.90;;;;;;5054383;28;20228;-51
2022/05/11 09:04:51;;;;;;;6.22;5.72;;;25.20;99.90;;;;;;5062484;28;20212;-50
2022/05/11 09:07:19;;;;;;;6.03;5.53;;;25.10;99.90;;;;;;5074107;28;20235;-49
2022/05/11 09:09:47;;;;;;;6.53;5.82;;;25.20;99.90;;;;;;5074613;28;20208;-50
2022/05/11 09:12:15;;;;;;;13.93;6.00;;;25.30;99.90;;;;;;5073895;28;20739;-51
2022/05/11 09:14:49;;;;;;;7.63;5.72;;;25.30;99.90;;;;;;5073861;28;20209;-50
2022/05/11 09:17:24;;;;;;;6.50;5.90;;;25.30;99.90;;;;;;5073826;28;20621;-50
2022/05/11 09:20:04;;;;;;;5.85;5.13;;;25.30;99.90;;;;;;5074110;28;20755;-50
2022/05/11 09:22:35;;;;;;;6.43;5.65;;;25.40;99.90;;;;;;5074183;28;20185;-51
2022/05/11 09:25:14;;;;;;;6.28;5.68;;;25.30;99.90;;;;;;5073918;28;20239;-51
2022/05/11 09:27:43;;;;;;;8.30;5.47;;;25.20;99.90;;;;;;5074350;28;20260;-51
2022/05/11 09:30:19;;;;;;;8.82;5.05;;;25.30;99.90;;;;;;5073295;28;20209;-50
2022/05/11 09:32:53;;;;;;;6.00;5.40;;;25.20;99.90;;;;;;5073751;28;20207;-51
2022/05/11 09:35:34;;;;;;;7.55;5.10;;;25.20;99.90;;;;;;5074344;28;20211;-51
2022/05/11 09:38:10;;;;;;;11.75;5.93;;;25.20;99.90;;;;;;5073279;28;20228;-51
2022/05/11 09:40:55;;;;;;;31.75;6.78;;;25.20;99.90;;;;;;5074368;28;20204;-50
2022/05/11 09:43:32;;;;;;;6.30;5.32;;;25.30;99.90;;;;;;5073152;28;20208;-51
2022/05/11 09:46:00;;;;;;;6.63;5.57;;;25.40;99.90;;;;;;5074263;28;20232;-50
2022/05/11 09:48:31;;;;;;;5.75;5.20;;;25.50;99.90;;;;;;5073466;28;20221;-51
2022/05/11 09:51:19;;;;;;;5.65;5.05;;;25.50;99.90;;;;;;5073026;28;20205;-50
2022/05/11 09:53:53;;;;;;;5.72;5.20;;;25.60;99.90;;;;;;5073449;28;20185;-51
2022/05/11 09:56:51;;;;;;;12.73;5.78;;;25.40;99.90;;;;;;5055254;28;20292;-51
2022/05/11 09:59:23;;;;;;;6.18;4.78;;;25.50;99.90;;;;;;5053745;28;20222;-53
2022/05/11 10:01:58;;;;;;;9.70;5.50;;;25.50;99.90;;;;;;5073018;28;20285;-52
2022/05/11 10:04:33;;;;;;;5.78;5.10;;;25.50;99.90;;;;;;5073181;28;20247;-53
2022/05/11 10:07:10;;;;;;;6.93;5.07;;;25.60;99.90;;;;;;5071601;28;20251;-52
2022/05/11 10:09:42;;;;;;;5.90;4.50;;;25.70;99.90;;;;;;5062800;28;20239;-52
2022/05/11 10:12:17;;;;;;;9.20;4.65;;;25.80;99.90;;;;;;5072940;28;20580;-50
2022/05/11 10:23:54;;;;;;;8.73;3.88;;;26.40;99.90;;;;;;5072712;28;20236;-52
2022/05/11 10:26:31;;;;;;;5.43;4.43;;;26.40;99.90;;;;;;5073857;28;20623;-51
2022/05/11 10:29:08;;;;;;;7.00;3.97;;;26.40;99.90;;;;;;5073460;28;20224;-51
2022/05/11 10:31:46;;;;;;;7.13;3.88;;;26.50;99.90;;;;;;5069125;28;20251;-51
2022/05/11 10:34:21;;;;;;;6.55;3.90;;;26.60;99.90;;;;;;5052970;28;20247;-52
2022/05/11 10:36:58;;;;;;;6.65;4.28;;;26.60;99.90;;;;;;5062401;28;20299;-53
2022/05/11 10:39:37;;;;;;;4.78;3.90;;;26.70;99.90;;;;;;5072443;28;20252;-51
2022/05/11 10:42:13;;;;;;;8.40;3.90;;;26.70;99.90;;;;;;5072215;28;20856;-51
2022/05/11 10:44:56;;;;;;;6.88;4.13;;;26.50;99.90;;;;;;5072888;28;20828;-51
2022/05/11 10:47:43;;;;;;;7.00;3.75;;;26.70;99.90;;;;;;5072333;28;20251;-51
2022/05/11 10:50:22;;;;;;;6.57;4.45;;;26.60;99.90;;;;;;5072216;28;20221;-51
2022/05/11 10:53:05;;;;;;;8.25;4.20;;;26.50;99.90;;;;;;5071516;28;20200;-49
2022/05/11 10:55:47;;;;;;;13.30;4.05;;;26.80;99.90;;;;;;5072396;28;20231;-50
2022/05/11 10:58:38;;;;;;;6.60;4.00;;;26.70;99.90;;;;;;5071730;28;20271;-51
2022/05/11 11:01:10;;;;;;;5.40;3.80;;;26.80;99.90;;;;;;5060360;28;20231;-51
2022/05/11 11:04:20;;;;;;;10.35;4.05;;;26.70;99.90;;;;;;5071298;28;20216;-51
2022/05/11 11:07:13;;;;;;;4.45;3.70;;;26.60;99.90;;;;;;5071382;28;20681;-50
2022/05/11 11:10:00;;;;;;;4.32;3.92;;;26.70;99.90;;;;;;5070398;28;20215;-51
2022/05/11 11:12:48;;;;;;;4.35;3.92;;;27.00;99.90;;;;;;5071442;28;20290;-51
2022/05/11 11:15:20;;;;;;;5.55;3.80;;;26.80;99.90;;;;;;5072187;28;20239;-51
2022/05/11 11:17:49;;;;;;;6.30;4.05;;;26.70;99.90;;;;;;5069112;28;20306;-50
2022/05/11 11:20:20;;;;;;;4.90;3.67;;;26.90;99.90;;;;;;5070849;28;20274;-51
2022/05/11 11:23:08;;;;;;;5.10;3.80;;;27.10;99.90;;;;;;5071821;28;20243;-51
2022/05/11 11:25:47;;;;;;;5.32;3.85;;;27.00;99.90;;;;;;5072292;28;20205;-51
2022/05/11 11:28:17;;;;;;;8.80;4.25;;;27.10;99.90;;;;;;5070483;28;20801;-51
2022/05/11 11:31:20;;;;;;;4.35;3.90;;;27.00;99.90;;;;;;5071077;28;20235;-50
2022/05/11 11:34:17;;;;;;;4.78;4.03;;;26.90;99.90;;;;;;5070102;28;20700;-51
2022/05/11 11:36:46;;;;;;;7.88;4.05;;;26.90;99.90;;;;;;5071234;28;20240;-51
2022/05/11 11:39:55;;;;;;;5.75;3.83;;;26.80;99.90;;;;;;5066307;28;20249;-49
2022/05/11 11:42:37;;;;;;;10.75;3.85;;;26.80;99.90;;;;;;5051912;28;20271;-49
2022/05/11 11:45:08;;;;;;;5.38;3.50;;;27.00;98.80;;;;;;5052051;28;20186;-51
2022/05/11 11:47:42;;;;;;;7.68;3.60;;;27.20;99.90;;;;;;5051709;28;20222;-51
2022/05/11 11:50:33;;;;;;;8.85;3.60;;;27.30;99.00;;;;;;5062981;28;20216;-51
2022/05/11 11:53:11;;;;;;;5.63;3.60;;;27.20;98.00;;;;;;5070725;28;20243;-51
2022/05/11 11:55:41;;;;;;;14.30;4.00;;;27.30;98.20;;;;;;5071384;28;20227;-51
2022/05/11 11:58:17;;;;;;;8.52;3.60;;;27.20;98.30;;;;;;5070750;28;20264;-50
2022/05/11 12:01:01;;;;;;;5.72;3.50;;;27.10;98.30;;;;;;5062619;28;20280;-53
2022/05/11 12:03:34;;;;;;;7.25;3.70;;;27.20;99.20;;;;;;5056148;28;20755;-51
2022/05/11 12:17:31;;;;;;;6.13;3.40;;;27.30;96.10;;;;;;5070817;28;20290;-51
2022/05/11 12:20:04;;;;;;;6.38;3.17;;;27.10;97.30;;;;;;5061151;28;20198;-51
2022/05/11 12:22:37;;;;;;;5.68;3.33;;;27.30;98.00;;;;;;5057202;28;20262;-51
2022/05/11 12:25:21;;;;;;;8.48;3.38;;;27.50;97.20;;;;;;5070394;28;20231;-51
2022/05/11 12:27:51;;;;;;;5.60;3.40;;;27.30;95.30;;;;;;5061847;28;20280;-50
2022/05/11 12:30:23;;;;;;;5.07;3.67;;;27.40;94.40;;;;;;5069179;28;20247;-51
2022/05/11 12:32:54;;;;;;;7.68;3.92;;;27.50;95.40;;;;;;5048883;28;20206;-51
2022/05/11 12:35:26;;;;;;;5.40;3.65;;;27.30;95.20;;;;;;5070301;28;20650;-51
2022/05/11 12:37:57;;;;;;;6.97;3.58;;;27.40;95.80;;;;;;5070024;28;20233;-50
2022/05/11 12:40:28;;;;;;;9.13;3.53;;;27.60;96.80;;;;;;5055274;28;20294;-51
2022/05/11 12:42:59;;;;;;;4.90;3.30;;;27.70;95.80;;;;;;5049824;28;20213;-50
2022/05/11 12:45:36;;;;;;;3.50;3.20;;;27.60;96.00;;;;;;5049592;28;20209;-51
2022/05/11 12:48:05;;;;;;;5.18;3.60;;;27.60;96.00;;;;;;5050397;28;20225;-51
2022/05/11 12:50:35;;;;;;;4.75;3.50;;;27.70;95.20;;;;;;5064396;28;20258;-51
2022/05/11 12:53:25;;;;;;;3.70;3.10;;;27.70;95.30;;;;;;5069471;28;20689;-52
2022/05/11 12:55:55;;;;;;;5.00;3.30;;;27.50;93.30;;;;;;5070035;28;20227;-50
2022/05/11 12:58:29;;;;;;;9.68;3.70;;;27.50;96.20;;;;;;5070541;28;20228;-51
2022/05/11 13:00:58;;;;;;;8.80;3.65;;;27.30;94.00;;;;;;5079336;28;20204;-51
2022/05/11 13:03:29;;;;;;;5.57;3.50;;;27.10;94.70;;;;;;5089860;28;20718;-51
2022/05/11 13:06:02;;;;;;;3.60;3.25;;;27.30;94.80;;;;;;5090797;28;20230;-51
2022/05/11 13:08:38;;;;;;;11.23;4.18;;;27.20;94.10;;;;;;5089308;28;20224;-51
2022/05/11 13:11:13;;;;;;;6.28;3.50;;;27.00;95.00;;;;;;5050251;28;20538;-51
2022/05/11 13:13:45;;;;;;;5.68;3.20;;;27.40;96.30;;;;;;5049744;28;20210;-51
2022/05/11 13:16:17;;;;;;;5.57;3.58;;;27.50;96.10;;;;;;5050262;28;20248;-51
2022/05/11 13:18:47;;;;;;;3.65;3.33;;;27.50;95.00;;;;;;5050319;28;20229;-51
2022/05/11 13:21:25;;;;;;;5.13;3.33;;;27.80;96.10;;;;;;5050154;28;20190;-51
2022/05/11 13:23:53;;;;;;;4.85;3.30;;;27.90;95.40;;;;;;5049809;28;20267;-51
2022/05/11 13:26:34;;;;;;;8.77;3.50;;;27.70;93.70;;;;;;5049939;28;20205;-51
2022/05/11 13:29:22;;;;;;;6.63;3.30;;;27.60;95.00;;;;;;5050076;28;20312;-51
2022/05/11 13:32:04;;;;;;;4.32;3.22;;;27.60;94.50;;;;;;5057466;28;20205;-51
2022/05/11 13:34:34;;;;;;;7.07;3.20;;;27.60;94.20;;;;;;5059008;28;20241;-51
2022/05/11 13:37:04;;;;;;;4.03;3.63;;;27.60;94.90;;;;;;5050009;28;20577;-51
2022/05/11 13:39:35;;;;;;;8.15;3.38;;;27.40;93.80;;;;;;5057677;28;20233;-51
2022/05/11 13:42:15;;;;;;;7.53;3.13;;;27.10;93.50;;;;;;5072979;28;21100;-51
2022/05/11 13:44:52;;;;;;;7.03;3.72;;;27.10;93.70;;;;;;5073667;28;20818;-51
2022/05/11 13:50:30;;;;;;;7.43;3.55;;;27.40;95.10;;;;;;5060203;28;20216;-51
2022/05/11 13:53:00;;;;;;;6.30;3.47;;;27.20;94.50;;;;;;5073553;28;20681;-51
2022/05/11 13:55:32;;;;;;;6.63;3.53;;;27.10;94.40;;;;;;5073769;28;20736;-51